Time;durP1;ratioP1;P1;durP2;ratioP2;P2;SDS_P1;SDS_P2;PMS_P1;PMS_P2;Temp;Humidity;BMP_temperature;BMP_pressure;BME280_temperature;BME280_humidity;BME280_pressure;Samples;Min_cycle;Max_cycle;Signal;HPM_P1;HPM_P2
2022/02/14 00:02:41;;;;;;;2.67;1.60;;;;;;;3.73;100.00;97738.69;10413993;28;20481;-60
2022/02/14 00:07:47;;;;;;;3.85;1.85;;;;;;;3.73;100.00;97733.38;10401599;28;20111;-61
2022/02/14 00:12:51;;;;;;;2.33;1.60;;;;;;;3.70;100.00;97719.34;10419587;28;20045;-60
2022/02/14 00:17:56;;;;;;;3.08;1.40;;;;;;;3.70;100.00;97706.00;10424892;28;20061;-60
2022/02/14 00:23:00;;;;;;;2.85;1.67;;;;;;;3.64;100.00;97698.56;10420876;28;20053;-60
2022/02/14 00:28:03;;;;;;;2.30;1.50;;;;;;;3.62;100.00;97700.53;10428598;28;20128;-60
2022/02/14 00:33:06;;;;;;;3.83;1.60;;;;;;;3.58;100.00;97693.81;10417425;28;20061;-60
2022/02/14 00:38:12;;;;;;;2.95;1.52;;;;;;;3.55;100.00;97696.72;10416649;28;20041;-61
2022/02/14 00:43:15;;;;;;;2.22;1.52;;;;;;;3.49;100.00;97690.13;10418363;28;20065;-61
2022/02/14 00:48:20;;;;;;;3.00;1.60;;;;;;;3.48;100.00;97683.09;10414773;28;20493;-61
2022/02/14 00:53:25;;;;;;;2.03;1.40;;;;;;;3.46;100.00;97676.25;10399727;28;20128;-60
2022/02/14 00:58:29;;;;;;;3.13;1.52;;;;;;;3.41;100.00;97675.78;10413012;28;20196;-60
2022/02/14 01:03:31;;;;;;;2.58;1.45;;;;;;;3.36;100.00;97673.53;10407700;28;20630;-59
2022/02/14 01:08:36;;;;;;;3.25;1.40;;;;;;;3.33;100.00;97674.66;10422162;28;20127;-60
2022/02/14 01:13:40;;;;;;;1.75;1.38;;;;;;;3.36;100.00;97663.72;10421452;28;20108;-60
2022/02/14 01:18:43;;;;;;;2.28;1.35;;;;;;;3.28;100.00;97658.22;10423003;28;20045;-61
2022/02/14 01:23:48;;;;;;;4.57;2.05;;;;;;;3.25;100.00;97650.50;10434629;28;20049;-61
2022/02/14 01:28:51;;;;;;;1.65;1.40;;;;;;;3.23;100.00;97657.81;10425729;28;20052;-61
2022/02/14 01:33:54;;;;;;;2.35;1.27;;;;;;;3.18;100.00;97649.34;10433398;28;20132;-60
2022/02/14 01:38:58;;;;;;;1.85;1.30;;;;;;;3.14;100.00;97648.78;10425754;28;20045;-60
2022/02/14 01:44:02;;;;;;;1.58;1.38;;;;;;;3.18;100.00;97633.38;10417761;28;20524;-59
2022/02/14 01:49:05;;;;;;;1.45;1.17;;;;;;;3.24;100.00;97622.19;10421894;28;20047;-59
2022/02/14 01:54:09;;;;;;;1.85;1.30;;;;;;;3.25;100.00;97623.88;10418385;28;20052;-61
2022/02/14 01:59:12;;;;;;;2.20;1.27;;;;;;;3.24;100.00;97608.88;10424779;28;20080;-61
2022/02/14 02:04:15;;;;;;;1.73;1.30;;;;;;;3.26;100.00;97598.94;10422362;28;20076;-60
2022/02/14 02:09:21;;;;;;;2.67;1.20;;;;;;;3.28;100.00;97586.34;10428264;28;20045;-60
2022/02/14 02:14:25;;;;;;;1.77;1.40;;;;;;;3.34;100.00;97596.47;10427019;28;20084;-60
2022/02/14 02:19:28;;;;;;;2.33;1.20;;;;;;;3.34;100.00;97591.16;10425385;28;20052;-61
2022/02/14 02:24:34;;;;;;;2.22;1.30;;;;;;;3.35;100.00;97589.31;10431168;28;20064;-60
2022/02/14 02:29:39;;;;;;;1.83;1.27;;;;;;;3.29;100.00;97581.88;10428088;28;20052;-61
2022/02/14 02:34:44;;;;;;;2.63;1.20;;;;;;;3.29;100.00;97572.06;10423571;28;20075;-60
2022/02/14 02:39:47;;;;;;;3.42;1.25;;;;;;;3.21;100.00;97564.75;10427051;28;20520;-60
2022/02/14 02:44:53;;;;;;;2.78;1.52;;;;;;;3.20;100.00;97578.22;10434135;28;20042;-59
2022/02/14 02:49:56;;;;;;;3.80;1.48;;;;;;;3.18;100.00;97565.00;10414544;28;20041;-60
2022/02/14 02:54:59;;;;;;;2.33;1.33;;;;;;;3.16;100.00;97552.84;10406948;28;20116;-60
2022/02/14 03:00:04;;;;;;;2.22;1.38;;;;;;;3.11;100.00;97536.44;10404367;28;20049;-61
2022/02/14 03:05:08;;;;;;;2.92;1.40;;;;;;;3.14;100.00;97526.38;10412279;28;20645;-61
2022/02/14 03:10:13;;;;;;;2.33;1.40;;;;;;;3.17;100.00;97511.94;10407416;28;20514;-60
2022/02/14 03:15:17;;;;;;;1.83;1.40;;;;;;;3.16;100.00;97516.44;10411893;28;20120;-61
2022/02/14 03:20:20;;;;;;;2.60;1.50;;;;;;;3.18;100.00;97513.63;10411012;28;20457;-60
2022/02/14 03:25:25;;;;;;;3.20;1.45;;;;;;;3.17;100.00;97509.28;10413320;28;20111;-60
2022/02/14 03:30:29;;;;;;;3.22;1.50;;;;;;;3.14;100.00;97498.88;10418566;28;20040;-61
2022/02/14 03:35:32;;;;;;;2.85;1.48;;;;;;;3.12;100.00;97492.88;10418186;28;20041;-58
2022/02/14 03:40:36;;;;;;;1.52;1.25;;;;;;;3.14;100.00;97488.25;10410337;28;20048;-61
2022/02/14 03:45:42;;;;;;;2.13;1.30;;;;;;;3.07;100.00;97488.81;10418403;28;20051;-60
2022/02/14 03:50:45;;;;;;;2.25;1.40;;;;;;;3.07;100.00;97483.50;10419805;28;20568;-60
2022/02/14 03:55:49;;;;;;;3.70;1.30;;;;;;;3.08;100.00;97477.19;10414020;28;20046;-60
2022/02/14 04:00:53;;;;;;;3.95;1.92;;;;;;;3.04;100.00;97467.78;10418721;28;20044;-61
2022/02/14 04:05:56;;;;;;;1.88;1.40;;;;;;;3.04;100.00;97467.78;10418554;28;20045;-60
2022/02/14 04:11:00;;;;;;;2.28;1.40;;;;;;;3.01;100.00;97460.06;10407201;28;20067;-61
2022/02/14 04:16:05;;;;;;;2.13;1.48;;;;;;;2.97;100.00;97456.03;10416646;28;20116;-60
2022/02/14 04:21:08;;;;;;;2.88;1.40;;;;;;;2.91;100.00;97451.22;10408168;28;20045;-60
2022/02/14 04:26:11;;;;;;;1.80;1.30;;;;;;;2.93;100.00;97439.50;10415394;28;20043;-60
2022/02/14 04:31:16;;;;;;;1.77;1.50;;;;;;;2.92;100.00;97434.28;10403123;28;20073;-60
2022/02/14 04:36:19;;;;;;;2.42;1.20;;;;;;;2.98;100.00;97431.09;10422577;28;20480;-56
2022/02/14 04:41:22;;;;;;;2.83;1.30;;;;;;;2.98;100.00;97419.59;10404483;28;20697;-57
2022/02/14 04:46:27;;;;;;;1.80;1.30;;;;;;;3.00;100.00;97431.78;10416667;28;21154;-59
2022/02/14 04:51:30;;;;;;;2.78;1.42;;;;;;;3.13;100.00;97444.84;10407794;28;20068;-63
2022/02/14 04:56:33;;;;;;;2.60;1.30;;;;;;;3.13;100.00;97425.34;10406130;28;20045;-64
2022/02/14 05:01:38;;;;;;;2.72;1.40;;;;;;;3.13;100.00;97431.53;10415745;28;20569;-63
2022/02/14 05:06:41;;;;;;;2.20;1.20;;;;;;;3.11;100.00;97430.00;10416499;28;20556;-63
2022/02/14 05:11:44;;;;;;;1.83;1.25;;;;;;;3.08;100.00;97420.44;10414106;28;20145;-62
2022/02/14 05:16:48;;;;;;;1.70;1.30;;;;;;;3.11;100.00;97424.69;10417560;28;20120;-63
2022/02/14 05:21:51;;;;;;;2.08;1.48;;;;;;;3.16;100.00;97423.28;10420050;28;20369;-63
2022/02/14 05:26:54;;;;;;;3.03;1.60;;;;;;;3.20;100.00;97410.53;10417925;28;20055;-63
2022/02/14 05:31:59;;;;;;;3.25;1.20;;;;;;;3.23;100.00;97410.25;10422057;28;20123;-63
2022/02/14 05:37:02;;;;;;;1.95;1.40;;;;;;;3.26;100.00;97411.78;10425317;28;20051;-63
2022/02/14 05:42:08;;;;;;;2.40;1.50;;;;;;;3.18;100.00;97405.31;10425778;28;20457;-63
2022/02/14 05:47:12;;;;;;;2.63;1.30;;;;;;;3.17;100.00;97411.66;10425269;28;20127;-63
2022/02/14 05:52:15;;;;;;;2.67;1.45;;;;;;;3.17;100.00;97408.13;10427537;28;20053;-63
2022/02/14 05:57:20;;;;;;;2.60;1.30;;;;;;;3.19;100.00;97406.19;10432837;28;20076;-62
2022/02/14 06:02:24;;;;;;;2.60;1.45;;;;;;;3.17;100.00;97402.81;10428694;28;20065;-62
2022/02/14 06:07:28;;;;;;;2.38;1.40;;;;;;;3.14;100.00;97405.75;10430753;28;20086;-60
2022/02/14 06:12:31;;;;;;;3.03;1.40;;;;;;;3.11;100.00;97403.38;10427171;28;20045;-63
2022/02/14 06:17:36;;;;;;;2.13;1.40;;;;;;;3.13;100.00;97404.06;10430684;28;20041;-63
2022/02/14 06:22:39;;;;;;;3.33;1.45;;;;;;;3.10;100.00;97407.03;10427887;28;20519;-61
2022/02/14 06:27:42;;;;;;;4.30;1.30;;;;;;;3.09;100.00;97403.50;10421605;28;20565;-64
2022/02/14 06:32:46;;;;;;;1.98;1.40;;;;;;;3.11;100.00;97403.38;10417909;28;20045;-62
2022/02/14 06:37:49;;;;;;;3.33;1.50;;;;;;;3.12;100.00;97399.75;10388262;28;20058;-62
2022/02/14 06:42:52;;;;;;;3.00;1.50;;;;;;;3.12;100.00;97400.56;10391503;28;20610;-63
2022/02/14 06:47:57;;;;;;;2.58;1.50;;;;;;;3.08;100.00;97402.69;10397756;28;20045;-63
2022/02/14 06:53:00;;;;;;;5.00;1.50;;;;;;;3.11;100.00;97392.75;10369762;28;20160;-61
2022/02/14 06:58:04;;;;;;;2.78;1.38;;;;;;;3.12;100.00;97405.91;10389235;28;20079;-63
2022/02/14 07:03:08;;;;;;;2.85;1.33;;;;;;;3.18;100.00;97400.00;10378602;28;20502;-63
2022/02/14 07:08:12;;;;;;;3.83;1.70;;;;;;;3.20;100.00;97398.03;10379865;28;20057;-60
2022/02/14 07:13:16;;;;;;;3.13;1.45;;;;;;;3.30;100.00;97384.75;10383331;28;20034;-60
2022/02/14 07:18:21;;;;;;;1.70;1.40;;;;;;;3.28;100.00;97372.56;10386967;28;20446;-63
2022/02/14 07:23:26;;;;;;;2.45;1.40;;;;;;;3.30;100.00;97376.75;10379243;28;20125;-63
2022/02/14 07:28:29;;;;;;;2.63;1.35;;;;;;;3.32;100.00;97385.44;10359552;28;20685;-63
2022/02/14 07:33:34;;;;;;;2.22;1.50;;;;;;;3.37;100.00;97377.84;10385919;28;20104;-60
2022/02/14 07:38:37;;;;;;;2.55;1.50;;;;;;;3.46;100.00;97391.31;10380997;28;20490;-63
2022/02/14 07:43:40;;;;;;;2.80;1.40;;;;;;;3.60;100.00;97390.88;10381860;28;20339;-63
2022/02/14 07:48:46;;;;;;;2.80;1.52;;;;;;;3.73;100.00;97395.03;10366964;28;20072;-62
2022/02/14 07:53:50;;;;;;;3.22;1.55;;;;;;;3.79;100.00;97395.31;10375054;28;20037;-65
2022/02/14 07:58:53;;;;;;;2.13;1.23;;;;;;;3.97;100.00;97390.09;10379616;28;20742;-63
2022/02/14 08:03:58;;;;;;;1.48;1.30;;;;;;;4.12;100.00;97402.94;10354491;28;20129;-61
2022/02/14 08:09:07;;;;;;;2.83;1.50;;;;;;;4.24;100.00;97399.13;10381767;28;20054;-64
2022/02/14 08:14:15;;;;;;;4.28;1.75;;;;;;;4.38;100.00;97407.63;10381981;28;20482;-65
2022/02/14 08:19:19;;;;;;;3.13;1.60;;;;;;;4.61;98.42;97398.25;10354138;28;20494;-64
2022/02/14 08:24:22;;;;;;;2.50;1.70;;;;;;;4.83;99.06;97379.28;10382584;28;20041;-63
2022/02/14 08:29:28;;;;;;;2.25;1.30;;;;;;;5.02;97.90;97383.63;10363359;28;20132;-62
2022/02/14 08:34:33;;;;;;;2.92;1.70;;;;;;;5.20;89.91;97387.19;10333941;28;1133453;-62
2022/02/14 08:39:38;;;;;;;4.22;1.42;;;;;;;5.33;90.41;97385.94;10411088;28;20103;-61
2022/02/14 08:44:43;;;;;;;5.63;1.95;;;;;;;5.53;85.77;97375.91;10400280;28;20117;-63
2022/02/14 08:49:48;;;;;;;2.17;1.60;;;;;;;5.68;86.19;97377.03;10403827;28;20121;-64
2022/02/14 08:54:51;;;;;;;4.03;1.33;;;;;;;5.84;79.94;97362.94;10407643;28;20034;-64
2022/02/14 08:59:57;;;;;;;1.90;1.27;;;;;;;5.98;82.19;97350.00;10414092;28;20056;-63
2022/02/14 09:05:05;;;;;;;2.55;1.48;;;;;;;6.15;84.60;97354.47;10411506;28;20092;-62
2022/02/14 09:10:11;;;;;;;6.18;1.80;;;;;;;6.35;76.96;97354.22;10405145;28;20094;-63
2022/02/14 09:15:18;;;;;;;2.42;1.30;;;;;;;6.54;76.68;97361.16;10409017;28;20103;-61
2022/02/14 09:20:24;;;;;;;3.58;1.50;;;;;;;6.64;77.62;97361.03;10406654;28;20120;-63
2022/02/14 09:25:28;;;;;;;2.03;1.30;;;;;;;6.83;76.29;97345.66;10387265;28;20706;-64
2022/02/14 09:30:31;;;;;;;2.47;1.30;;;;;;;6.97;78.43;97344.16;10400400;28;20045;-64
2022/02/14 09:35:36;;;;;;;1.98;1.20;;;;;;;7.13;71.74;97346.88;10386339;28;20057;-63
2022/02/14 09:40:41;;;;;;;3.40;1.50;;;;;;;7.33;72.69;97347.41;10382894;28;20362;-65
2022/02/14 09:45:45;;;;;;;2.95;1.30;;;;;;;7.50;70.22;97342.88;10383565;28;20875;-63
2022/02/14 09:50:49;;;;;;;2.35;1.48;;;;;;;7.68;68.89;97348.06;10393141;28;20070;-65
2022/02/14 09:55:52;;;;;;;3.03;1.30;;;;;;;7.84;69.42;97349.88;10369354;28;20121;-64
2022/02/14 10:00:56;;;;;;;1.70;1.25;;;;;;;7.99;67.47;97341.97;10382301;28;20038;-64
2022/02/14 10:06:01;;;;;;;2.63;1.23;;;;;;;8.14;68.96;97346.63;10377187;28;20037;-65
2022/02/14 10:11:12;;;;;;;2.38;1.20;;;;;;;8.29;65.00;97352.09;10387092;28;20041;-63
2022/02/14 10:16:16;;;;;;;4.57;1.20;;;;;;;8.45;68.14;97354.72;10390361;28;20037;-64
2022/02/14 10:21:23;;;;;;;5.40;1.45;;;;;;;8.61;65.22;97351.16;10387814;28;20421;-65
2022/02/14 10:26:28;;;;;;;2.00;1.30;;;;;;;8.75;64.15;97335.31;10393944;28;20061;-63
2022/02/14 10:31:40;;;;;;;2.67;1.00;;;;;;;8.89;63.20;97345.28;10370125;28;20140;-65
2022/02/14 10:36:46;;;;;;;3.45;1.30;;;;;;;9.08;65.96;97337.78;10378784;28;20053;-65
2022/02/14 10:41:57;;;;;;;1.90;1.20;;;;;;;9.26;63.65;97342.88;10394860;28;20541;-66
2022/02/14 10:47:09;;;;;;;3.67;1.67;;;;;;;9.44;63.81;97339.88;10393771;28;20497;-63
2022/02/14 10:52:14;;;;;;;3.30;1.40;;;;;;;9.61;62.41;97335.19;10423078;23;20052;-79
2022/02/14 10:57:26;;;;;;;2.17;1.23;;;;;;;9.78;63.10;97335.88;10411919;28;20120;-84
2022/02/14 11:02:30;;;;;;;2.28;1.30;;;;;;;9.94;62.99;97342.09;10422839;28;20382;-86
2022/02/14 11:07:34;;;;;;;2.05;1.30;;;;;;;10.06;63.70;97310.19;10428669;28;20049;-79
2022/02/14 11:12:42;;;;;;;3.03;1.05;;;;;;;10.14;63.81;97286.72;10408173;28;20049;-82
2022/02/14 11:17:47;;;;;;;2.97;1.20;;;;;;;10.26;65.55;97300.53;10441879;28;20053;-84
2022/02/14 11:22:54;;;;;;;1.50;1.00;;;;;;;10.43;67.63;97287.72;10410205;28;20053;-85
2022/02/14 11:28:02;;;;;;;1.30;1.00;;;;;;;10.57;64.81;97285.19;10412589;28;20061;-78
2022/02/14 11:33:09;;;;;;;2.20;1.20;;;;;;;10.71;65.09;97284.31;10424632;28;20128;-81
2022/02/14 11:38:13;;;;;;;3.78;1.40;;;;;;;10.85;68.42;97290.69;10403098;28;20440;-83
2022/02/14 11:43:22;;;;;;;2.63;1.00;;;;;;;10.99;66.46;97277.34;10415883;28;20045;-79
2022/02/14 11:48:27;;;;;;;2.03;1.10;;;;;;;11.06;66.40;97265.63;10406754;28;20104;-80
2022/02/14 11:53:34;;;;;;;4.50;1.63;;;;;;;11.21;66.30;97276.31;10410155;28;20068;-85
2022/02/14 11:59:07;;;;;;;4.00;1.30;;;;;;;11.28;65.16;97271.00;10402084;28;20432;-79
2022/02/14 12:04:47;;;;;;;2.10;1.02;;;;;;;11.27;65.97;97263.94;10408633;28;20068;-80
2022/02/14 12:10:24;;;;;;;2.13;1.00;;;;;;;11.34;64.12;97259.44;10399177;28;20126;-80
2022/02/14 12:21:02;;;;;;;3.75;0.98;;;;;;;11.47;67.65;97247.06;10415869;28;20057;-83
2022/02/14 12:26:08;;;;;;;3.72;1.15;;;;;;;11.40;65.31;97263.22;10422339;28;20100;-80
2022/02/14 12:31:12;;;;;;;2.80;1.10;;;;;;;11.45;65.93;97254.53;10395857;28;20136;-80
2022/02/14 12:36:15;;;;;;;2.40;1.15;;;;;;;11.46;66.18;97248.13;10353297;28;20056;-81
2022/02/14 12:41:19;;;;;;;3.08;1.10;;;;;;;11.59;67.50;97245.50;10401350;28;20073;-80
2022/02/14 12:46:25;;;;;;;3.53;1.10;;;;;;;11.67;66.35;97245.34;10407508;28;20052;-81
2022/02/14 12:51:29;;;;;;;2.60;1.30;;;;;;;11.79;67.13;97239.41;10401653;28;20438;-79
2022/02/14 12:56:36;;;;;;;4.68;1.23;;;;;;;11.96;65.71;97231.81;10415931;28;20053;-82
2022/02/14 13:01:41;;;;;;;4.53;1.17;;;;;;;12.10;66.09;97232.75;10413865;28;20049;-80
2022/02/14 13:06:48;;;;;;;2.95;1.20;;;;;;;12.17;65.06;97230.94;10397320;28;20041;-79
2022/02/14 13:11:53;;;;;;;2.08;1.10;;;;;;;12.19;63.44;97220.75;10422214;28;20047;-85
2022/02/14 13:16:56;;;;;;;3.45;1.20;;;;;;;12.20;63.78;97224.28;10401943;28;20567;-81
2022/02/14 13:22:00;;;;;;;3.80;1.20;;;;;;;12.36;67.90;97212.28;10414713;28;20048;-79
2022/02/14 13:27:07;;;;;;;3.63;1.10;;;;;;;12.43;66.07;97202.34;10425976;28;20517;-79
2022/02/14 13:32:12;;;;;;;2.17;1.10;;;;;;;12.16;67.32;97205.78;10417803;28;20037;-82
2022/02/14 13:37:15;;;;;;;1.92;1.20;;;;;;;11.91;65.75;97210.84;10411678;28;20071;-81
2022/02/14 13:42:23;;;;;;;3.30;1.30;;;;;;;11.81;68.95;97215.78;10422986;28;20044;-79
2022/02/14 13:47:27;;;;;;;7.10;1.55;;;;;;;11.85;73.95;97223.25;10406004;28;20041;-79
2022/02/14 13:52:30;;;;;;;4.22;1.30;;;;;;;11.92;76.42;97225.16;10408492;28;20065;-81
2022/02/14 13:57:36;;;;;;;5.35;1.48;;;;;;;12.13;71.52;97230.47;10413288;28;20136;-80
2022/02/14 14:02:58;;;;;;;4.28;1.23;;;;;;;12.10;71.42;97230.03;10403867;28;20059;-78
2022/02/14 14:08:00;;;;;;;;;;;;;;;11.87;69.60;97223.91;10392963;28;20050;-79
2022/02/14 14:13:06;;;;;;;5.07;1.38;;;;;;;11.77;77.16;97222.59;10422769;28;19964;-81
2022/02/14 14:18:11;;;;;;;2.28;1.20;;;;;;;11.65;77.76;97223.13;10405547;28;20497;-82
2022/02/14 14:23:14;;;;;;;3.58;1.20;;;;;;;11.57;82.78;97234.09;10399290;28;20081;-81
2022/02/14 14:28:18;;;;;;;3.38;1.55;;;;;;;11.46;82.54;97231.94;10423634;28;20045;-81
2022/02/14 14:33:22;;;;;;;2.83;1.30;;;;;;;11.30;85.09;97223.09;10406256;28;20417;-81
2022/02/14 14:38:25;;;;;;;2.88;1.20;;;;;;;11.29;86.86;97229.53;10411257;28;20041;-82
2022/02/14 14:43:30;;;;;;;3.05;1.35;;;;;;;11.23;84.08;97236.53;10420459;28;20075;-81
2022/02/14 14:48:33;;;;;;;3.05;1.30;;;;;;;11.14;79.95;97234.16;10400086;28;20816;-81
2022/02/14 14:53:36;;;;;;;3.55;1.30;;;;;;;11.57;77.58;97228.69;10397368;28;20490;-81
2022/02/14 14:58:41;;;;;;;2.65;1.25;;;;;;;11.93;73.19;97232.22;10402610;28;20376;-81
2022/02/14 15:03:47;;;;;;;2.78;1.33;;;;;;;12.06;72.11;97226.91;10414352;28;20049;-81
2022/02/14 15:08:50;;;;;;;2.17;1.20;;;;;;;12.05;71.72;97219.03;10410001;28;20041;-81
2022/02/14 15:13:57;;;;;;;3.75;1.52;;;;;;;12.13;74.89;97216.16;10418843;28;20303;-81
2022/02/14 15:19:00;;;;;;;4.53;2.30;;;;;;;12.10;70.25;97220.09;10410676;28;20044;-81
2022/02/14 15:24:03;;;;;;;3.45;1.50;;;;;;;12.10;71.63;97205.75;10401753;28;20414;-81
2022/02/14 15:29:08;;;;;;;5.03;1.20;;;;;;;12.13;70.74;97208.06;10400635;28;20489;-81
2022/02/14 15:34:15;;;;;;;2.45;1.30;;;;;;;12.06;74.56;97213.44;10429625;28;20567;-80
2022/02/14 15:39:20;;;;;;;2.58;1.10;;;;;;;11.89;74.64;97218.28;10428838;28;20052;-81
2022/02/14 15:44:26;;;;;;;2.45;1.30;;;;;;;11.56;75.08;97213.53;10403763;28;20072;-81
2022/02/14 15:49:30;;;;;;;2.25;1.23;;;;;;;11.47;81.10;97209.31;10408566;28;20463;-82
2022/02/14 15:54:34;;;;;;;2.38;1.27;;;;;;;11.03;75.61;97213.97;10424207;28;20584;-81
2022/02/14 15:59:38;;;;;;;2.58;1.20;;;;;;;10.74;76.92;97208.53;10415686;28;20063;-81
2022/02/14 16:04:42;;;;;;;6.07;1.60;;;;;;;10.59;83.54;97227.41;10416278;28;20055;-81
2022/02/14 16:09:46;;;;;;;3.05;1.45;;;;;;;10.30;76.61;97231.00;10429758;28;20040;-81
2022/02/14 16:14:50;;;;;;;2.60;1.55;;;;;;;10.21;79.53;97232.97;10418570;28;20088;-82
2022/02/14 16:19:54;;;;;;;2.67;1.60;;;;;;;9.99;81.37;97232.91;10417007;28;20060;-82
2022/02/14 16:24:58;;;;;;;4.50;2.42;;;;;;;9.79;85.95;97250.63;10438272;28;20045;-81
2022/02/14 16:30:05;;;;;;;3.95;1.88;;;;;;;9.65;88.54;97260.38;10429126;28;20088;-83
2022/02/14 16:35:10;;;;;;;5.88;1.92;;;;;;;9.49;91.70;97266.75;10430517;22;20059;-61
2022/02/14 16:40:15;;;;;;;5.63;2.00;;;;;;;9.23;89.19;97267.97;10440527;28;20124;-61
2022/02/14 16:45:20;;;;;;;7.97;2.15;;;;;;;9.05;87.12;97270.97;10430428;28;20068;-60
2022/02/14 16:50:23;;;;;;;3.97;1.75;;;;;;;9.02;93.38;97272.19;10439127;28;20051;-62
2022/02/14 16:55:27;;;;;;;4.55;1.90;;;;;;;8.93;93.36;97284.00;10443808;28;20555;-61
2022/02/14 17:00:34;;;;;;;4.18;1.90;;;;;;;8.84;93.64;97280.53;10452374;23;20064;-84
2022/02/14 17:05:37;;;;;;;3.50;1.90;;;;;;;8.81;96.07;97280.06;10466893;28;20045;-83
2022/02/14 17:10:41;;;;;;;4.13;2.03;;;;;;;8.73;93.16;97289.81;10447408;28;20431;-83
2022/02/14 17:15:47;;;;;;;4.45;2.10;;;;;;;8.72;98.35;97287.34;10442585;28;20049;-84
2022/02/14 17:20:50;;;;;;;3.53;1.60;;;;;;;8.60;93.41;97285.06;10457570;28;20489;-85
2022/02/14 17:25:54;;;;;;;3.75;2.00;;;;;;;8.55;93.74;97292.78;10438797;28;20075;-86
2022/02/14 17:30:58;;;;;;;3.85;1.70;;;;;;;8.52;95.35;97290.47;10440729;28;20108;-84
2022/02/14 17:36:01;;;;;;;3.67;1.77;;;;;;;8.48;98.08;97294.50;10460063;28;20041;-84
2022/02/14 17:41:05;;;;;;;2.45;1.50;;;;;;;8.44;96.87;97304.75;10445577;28;20284;-85
2022/02/14 17:46:12;;;;;;;2.70;1.70;;;;;;;8.44;100.00;97303.88;10447685;28;20045;-85
2022/02/14 17:51:15;;;;;;;2.58;1.60;;;;;;;8.41;100.00;97313.13;10453759;28;20581;-85
2022/02/14 17:56:24;;;;;;;3.83;1.70;;;;;;;8.35;100.00;97319.19;10458453;28;20139;-85
2022/02/14 18:01:28;;;;;;;3.33;1.50;;;;;;;8.29;100.00;97318.03;10488375;28;20040;-85
2022/02/14 18:06:31;;;;;;;3.38;1.95;;;;;;;8.24;100.00;97316.88;10498574;28;20053;-83
2022/02/14 18:11:39;;;;;;;2.97;1.75;;;;;;;8.23;100.00;97316.06;10509039;28;20063;-83
2022/02/14 18:16:45;;;;;;;2.08;1.50;;;;;;;8.20;100.00;97305.66;10485049;28;20584;-85
2022/02/14 18:22:16;;;;;;;3.13;1.70;;;;;;;8.13;100.00;97304.69;10499487;28;20508;-83
2022/02/14 18:27:26;;;;;;;4.40;2.00;;;;;;;8.06;100.00;97315.28;10486572;28;20454;-83
2022/02/14 18:32:35;;;;;;;5.15;2.20;;;;;;;8.01;100.00;97313.13;10488809;28;20484;-83
2022/02/14 18:37:39;;;;;;;5.05;1.98;;;;;;;7.94;100.00;97322.84;10498734;28;20110;-83
2022/02/14 18:42:49;;;;;;;3.53;1.80;;;;;;;7.87;100.00;97324.56;10527899;28;20043;-84
2022/02/14 18:47:54;;;;;;;4.32;1.95;;;;;;;7.81;100.00;97325.25;10511724;28;20063;-84
2022/02/14 18:52:58;;;;;;;5.22;1.88;;;;;;;7.76;100.00;97327.59;10481278;28;20139;-85
2022/02/14 18:58:01;;;;;;;3.55;1.90;;;;;;;7.76;100.00;97333.78;10485833;28;20051;-84
2022/02/14 19:03:05;;;;;;;4.57;2.28;;;;;;;7.76;100.00;97336.47;10489456;28;20794;-86
2022/02/14 19:08:08;;;;;;;3.45;2.13;;;;;;;7.74;100.00;97332.28;10483830;28;20420;-85
2022/02/14 19:13:11;;;;;;;4.05;2.00;;;;;;;7.75;100.00;97340.19;10483676;28;20510;-83
2022/02/14 19:18:16;;;;;;;2.72;1.58;;;;;;;7.75;100.00;97328.59;10478281;28;20045;-86
2022/02/14 19:23:21;;;;;;;3.35;1.80;;;;;;;7.71;100.00;97331.59;10492411;28;20080;-81
2022/02/14 19:28:26;;;;;;;3.60;1.70;;;;;;;7.71;100.00;97334.28;10483138;28;20162;-82
2022/02/14 19:33:49;;;;;;;3.42;2.10;;;;;;;7.71;100.00;97349.56;10489525;28;20044;-82
2022/02/14 19:38:55;;;;;;;4.65;2.33;;;;;;;7.69;100.00;97336.34;10498278;28;20059;-81
2022/02/14 19:43:58;;;;;;;5.57;1.95;;;;;;;7.71;100.00;97341.50;10485795;28;20457;-80
2022/02/14 19:49:04;;;;;;;5.47;2.00;;;;;;;7.69;100.00;97352.41;10508428;28;20300;-78
2022/02/14 19:54:12;;;;;;;7.35;2.20;;;;;;;7.67;100.00;97357.09;10523045;28;20054;-82
2022/02/14 19:59:17;;;;;;;2.03;1.52;;;;;;;7.65;100.00;97356.44;10483795;28;20382;-84
2022/02/14 20:04:25;;;;;;;3.20;1.90;;;;;;;7.66;100.00;97363.47;10478590;28;20558;-83
2022/02/14 20:09:28;;;;;;;4.28;2.08;;;;;;;7.65;100.00;97372.50;10481045;28;20036;-85
2022/02/14 20:14:35;;;;;;;3.65;2.28;;;;;;;7.65;100.00;97377.88;10509464;28;20059;-82
2022/02/14 20:19:40;;;;;;;4.38;2.22;;;;;;;7.62;100.00;97380.06;10480550;28;20139;-83
2022/02/14 20:38:26;;;;;;;4.75;2.00;;;;;;;7.78;100.00;97380.03;10399423;28;20046;-82
2022/02/14 20:43:29;;;;;;;3.65;1.90;;;;;;;7.80;100.00;97379.88;10480599;28;20115;-82
2022/02/14 20:48:32;;;;;;;2.95;1.70;;;;;;;7.77;100.00;97386.41;10489529;28;20039;-82
2022/02/14 20:53:36;;;;;;;2.67;1.85;;;;;;;7.78;100.00;97387.25;10492304;28;20091;-81
2022/02/14 20:58:39;;;;;;;5.15;1.90;;;;;;;7.78;100.00;97388.06;10479663;28;20131;-82
2022/02/14 21:03:43;;;;;;;3.92;1.80;;;;;;;7.80;100.00;97395.97;10482723;28;20526;-82
2022/02/14 21:08:49;;;;;;;5.22;1.77;;;;;;;7.81;100.00;97392.28;10500132;28;20047;-81
2022/02/14 21:13:56;;;;;;;7.68;2.15;;;;;;;7.79;100.00;97389.75;10476636;28;20072;-81
2022/02/14 21:18:59;;;;;;;3.60;2.00;;;;;;;7.81;100.00;97394.97;10479550;28;20055;-82
2022/02/14 21:24:04;;;;;;;5.50;1.85;;;;;;;7.78;100.00;97393.44;10475924;28;20047;-81
2022/02/14 21:29:29;;;;;;;3.90;2.00;;;;;;;7.72;100.00;97376.19;10480359;28;20041;-81
2022/02/14 21:34:33;;;;;;;4.97;2.53;;;;;;;7.70;100.00;97383.56;10508767;28;20056;-81
2022/02/14 21:39:39;;;;;;;4.57;2.00;;;;;;;7.68;100.00;97388.25;10486372;28;20127;-82
2022/02/14 21:44:44;;;;;;;3.65;1.95;;;;;;;7.65;100.00;97396.63;10489582;28;20053;-81
2022/02/14 21:49:48;;;;;;;3.65;1.83;;;;;;;7.54;100.00;97391.63;10493631;28;20131;-81
2022/02/14 21:54:56;;;;;;;3.75;1.98;;;;;;;7.50;100.00;97391.13;10477906;28;20058;-84
2022/02/14 21:59:58;;;;;;;4.03;1.95;;;;;;;7.49;100.00;97394.78;10497642;28;20131;-84
2022/02/14 22:10:23;;;;;;;3.30;1.92;;;;;;;7.42;100.00;97414.38;10487063;28;20120;-83
2022/02/14 22:15:27;;;;;;;5.20;1.75;;;;;;;7.36;100.00;97415.88;10489004;28;20052;-84
2022/02/14 22:20:31;;;;;;;4.55;2.08;;;;;;;7.33;100.00;97426.94;10488400;28;20043;-83
2022/02/14 22:25:35;;;;;;;3.30;1.70;;;;;;;7.31;100.00;97424.44;10492187;28;20091;-84
2022/02/14 22:30:38;;;;;;;2.65;1.60;;;;;;;7.28;100.00;97424.75;10480930;28;20079;-83
2022/02/14 22:35:41;;;;;;;3.20;1.60;;;;;;;7.29;100.00;97429.09;10480155;22;20082;-60
2022/02/14 22:40:46;;;;;;;2.72;1.40;;;;;;;7.27;100.00;97432.97;10439400;28;20555;-61
2022/02/14 22:45:49;;;;;;;1.92;1.35;;;;;;;7.31;100.00;97439.66;10459440;28;20084;-62
2022/02/14 22:50:52;;;;;;;2.13;1.50;;;;;;;7.31;100.00;97443.19;10459400;28;20061;-63
2022/02/14 22:56:00;;;;;;;2.60;1.35;;;;;;;7.35;100.00;97446.34;10424491;28;20457;-63
2022/02/14 23:01:04;;;;;;;2.90;1.50;;;;;;;7.34;100.00;97442.00;10455569;28;20045;-63
2022/02/14 23:06:09;;;;;;;3.10;1.50;;;;;;;7.39;100.00;97447.72;10460289;28;20048;-63
2022/02/14 23:16:35;;;;;;;;;;;;;;;7.29;100.00;97455.06;10420844;28;20055;-61
2022/02/14 23:21:39;;;;;;;4.38;1.60;;;;;;;7.20;100.00;97459.56;10469694;28;19921;-62
2022/02/14 23:26:43;;;;;;;1.88;1.30;;;;;;;7.16;100.00;97463.56;10468841;28;20455;-62
2022/02/14 23:31:46;;;;;;;1.98;1.30;;;;;;;7.07;100.00;97460.88;10474754;28;20068;-62
2022/02/14 23:36:49;;;;;;;3.75;1.60;;;;;;;7.06;100.00;97464.53;10469760;28;20063;-62
2022/02/14 23:41:54;;;;;;;2.53;1.50;;;;;;;7.00;100.00;97465.19;10470327;28;20382;-62
2022/02/14 23:46:57;;;;;;;2.65;1.60;;;;;;;6.90;100.00;97477.88;10469384;28;20504;-62
2022/02/14 23:52:00;;;;;;;3.35;1.60;;;;;;;6.88;100.00;97482.56;10478890;28;20505;-63
2022/02/14 23:57:05;;;;;;;2.45;1.42;;;;;;;6.81;100.00;97482.38;10428844;28;20091;-62
